Time;durP1;ratioP1;P1;durP2;ratioP2;P2;SDS_P1;SDS_P2;PMS_P1;PMS_P2;Temp;Humidity;BMP_temperature;BMP_pressure;BME280_temperature;BME280_humidity;BME280_pressure;Samples;Min_cycle;Max_cycle;Signal;HPM_P1;HPM_P2
2022/10/13 00:01:05;;;;;;;52.28;30.13;;;10.60;99.90;;;;;;5027482;28;20045;-71
2022/10/13 00:03:33;;;;;;;47.75;28.63;;;10.50;99.90;;;;;;5027641;28;20049;-71
2022/10/13 00:06:06;;;;;;;52.33;29.70;;;10.50;99.90;;;;;;5006796;28;20089;-72
2022/10/13 00:08:34;;;;;;;54.58;30.50;;;10.40;99.90;;;;;;5028627;28;20440;-72
2022/10/13 00:11:12;;;;;;;51.97;29.17;;;10.30;99.90;;;;;;5024630;28;20042;-71
2022/10/13 00:13:41;;;;;;;50.70;29.58;;;10.30;99.90;;;;;;5023930;28;20682;-71
2022/10/13 00:16:10;;;;;;;53.45;28.92;;;10.30;99.90;;;;;;5015258;28;20516;-72
2022/10/13 00:18:38;;;;;;;55.13;28.10;;;10.20;99.90;;;;;;5012857;28;20049;-72
2022/10/13 00:21:11;;;;;;;47.83;27.40;;;10.20;99.90;;;;;;5013510;28;20083;-72
2022/10/13 00:23:39;;;;;;;51.90;30.52;;;10.20;99.90;;;;;;5034316;28;20048;-72
2022/10/13 00:26:10;;;;;;;54.20;30.58;;;10.20;99.90;;;;;;5013080;28;20080;-72
2022/10/13 00:28:38;;;;;;;49.55;28.10;;;10.20;99.90;;;;;;5019696;28;20045;-71
2022/10/13 00:31:18;;;;;;;49.67;28.92;;;10.20;99.90;;;;;;5019189;28;20049;-72
2022/10/13 00:33:48;;;;;;;51.88;29.95;;;10.20;99.90;;;;;;5029322;28;20042;-72
2022/10/13 00:36:18;;;;;;;54.45;30.30;;;10.20;99.90;;;;;;5023319;28;20038;-72
2022/10/13 00:38:46;;;;;;;53.30;30.42;;;10.20;99.90;;;;;;5029489;28;20471;-71
2022/10/13 00:41:13;;;;;;;58.17;31.38;;;10.10;99.90;;;;;;5009223;28;20034;-72
2022/10/13 00:44:04;;;;;;;47.55;29.42;;;10.10;99.90;;;;;;5028277;28;20128;-72
2022/10/13 00:46:36;;;;;;;51.55;29.98;;;10.10;99.90;;;;;;5020179;28;20041;-72
2022/10/13 00:49:13;;;;;;;;;;;10.10;99.90;;;;;;5029978;28;20381;-72
2022/10/13 00:51:47;;;;;;;53.20;31.88;;;10.10;99.90;;;;;;5004148;28;20287;-72
2022/10/13 00:54:19;;;;;;;53.00;30.33;;;10.00;99.90;;;;;;5010544;28;20074;-71
2022/10/13 00:56:48;;;;;;;56.47;32.45;;;10.00;99.90;;;;;;5030596;28;20049;-71
2022/10/13 00:59:28;;;;;;;52.95;30.30;;;10.00;99.90;;;;;;5029077;28;20049;-71
2022/10/13 01:01:58;;;;;;;61.33;32.83;;;10.00;99.90;;;;;;5031005;28;20388;-71
2022/10/13 01:04:30;;;;;;;54.47;31.20;;;10.10;99.90;;;;;;5022812;28;20144;-71
2022/10/13 01:06:57;;;;;;;57.33;32.33;;;10.00;99.90;;;;;;5029300;28;20045;-71
2022/10/13 01:09:25;;;;;;;63.30;32.72;;;10.10;99.90;;;;;;5023733;28;20045;-72
2022/10/13 01:12:05;;;;;;;62.05;31.23;;;10.10;99.90;;;;;;5030359;28;20124;-71
2022/10/13 01:14:40;;;;;;;65.30;32.97;;;10.10;99.90;;;;;;5027654;28;20083;-71
2022/10/13 01:17:22;;;;;;;58.75;31.50;;;10.10;99.90;;;;;;5027273;28;20050;-71
2022/10/13 01:20:05;;;;;;;58.40;32.30;;;10.10;99.90;;;;;;5023950;28;20261;-71
2022/10/13 01:22:39;;;;;;;57.17;31.42;;;10.10;99.90;;;;;;5015489;28;20050;-71
2022/10/13 01:25:34;;;;;;;58.80;32.20;;;10.20;99.90;;;;;;5024087;28;20468;-72
2022/10/13 01:28:30;;;;;;;54.75;30.90;;;10.20;99.90;;;;;;5028732;28;20532;-72
2022/10/13 01:31:24;;;;;;;56.85;31.25;;;10.20;99.90;;;;;;5032685;28;20046;-72
2022/10/13 01:34:04;;;;;;;60.97;32.08;;;10.30;99.90;;;;;;5028156;28;20056;-72
2022/10/13 01:36:43;;;;;;;59.08;31.75;;;10.30;99.90;;;;;;5030982;28;20460;-72
2022/10/13 01:39:34;;;;;;;61.58;33.38;;;10.30;99.90;;;;;;5048810;28;20052;-72
2022/10/13 01:42:13;;;;;;;53.50;29.73;;;10.40;99.90;;;;;;5031171;28;20040;-71
2022/10/13 01:44:44;;;;;;;61.20;32.72;;;10.40;99.90;;;;;;5014931;28;20057;-71
2022/10/13 01:47:15;;;;;;;58.53;32.15;;;10.40;99.90;;;;;;5011520;28;20046;-72
2022/10/13 01:49:44;;;;;;;59.05;32.17;;;10.50;99.90;;;;;;5030814;28;20088;-72
2022/10/13 01:52:18;;;;;;;58.60;31.15;;;10.60;99.90;;;;;;5013102;28;20147;-72
2022/10/13 01:54:51;;;;;;;56.30;29.88;;;10.50;99.90;;;;;;5018540;28;20516;-72
2022/10/13 01:57:31;;;;;;;58.63;30.17;;;10.50;99.90;;;;;;5031936;28;20490;-71
2022/10/13 02:00:04;;;;;;;54.13;31.55;;;10.60;99.90;;;;;;5034220;28;20049;-72
2022/10/13 02:03:12;;;;;;;50.75;30.38;;;10.60;99.90;;;;;;5032971;28;20175;-72
2022/10/13 02:05:48;;;;;;;49.35;29.02;;;10.70;99.90;;;;;;5032656;28;20038;-72
2022/10/13 02:08:29;;;;;;;52.20;29.23;;;10.70;99.90;;;;;;5033337;28;20397;-72
2022/10/13 02:11:05;;;;;;;56.65;29.92;;;10.70;99.90;;;;;;5031272;28;20037;-71
2022/10/13 02:13:35;;;;;;;48.17;28.38;;;10.70;99.90;;;;;;5028754;28;20041;-72
2022/10/13 02:16:07;;;;;;;55.80;30.13;;;10.80;99.90;;;;;;5027212;28;20147;-71
2022/10/13 02:18:35;;;;;;;48.90;26.75;;;10.70;99.90;;;;;;5025061;28;20420;-71
2022/10/13 02:21:05;;;;;;;51.95;27.67;;;10.70;99.90;;;;;;5031472;28;20041;-71
2022/10/13 02:23:32;;;;;;;51.78;28.70;;;10.60;99.90;;;;;;5022426;28;20065;-71
2022/10/13 02:26:00;;;;;;;52.30;29.95;;;10.60;99.90;;;;;;5025829;28;20073;-72
2022/10/13 02:28:28;;;;;;;51.03;29.38;;;10.60;99.90;;;;;;5030798;28;20045;-72
2022/10/13 02:30:55;;;;;;;49.72;28.27;;;10.60;99.90;;;;;;5015777;28;20049;-72
2022/10/13 02:33:22;;;;;;;50.38;27.60;;;10.60;99.90;;;;;;5032732;28;20060;-72
2022/10/13 02:35:50;;;;;;;55.63;29.73;;;10.60;99.90;;;;;;5051716;28;20048;-72
2022/10/13 02:38:17;;;;;;;51.78;28.02;;;10.60;99.90;;;;;;5044819;28;20099;-71
2022/10/13 02:40:44;;;;;;;51.50;28.65;;;10.60;99.90;;;;;;5033023;28;20472;-71
2022/10/13 02:43:11;;;;;;;51.55;29.10;;;10.60;99.90;;;;;;5030407;28;20045;-71
2022/10/13 02:45:39;;;;;;;53.20;27.80;;;10.50;99.90;;;;;;5031717;28;20033;-71
2022/10/13 02:48:06;;;;;;;49.95;28.23;;;10.60;99.90;;;;;;5047489;28;20042;-71
2022/10/13 02:50:34;;;;;;;45.15;26.85;;;10.50;99.90;;;;;;5030327;28;20053;-71
2022/10/13 02:53:01;;;;;;;50.45;28.25;;;10.60;99.90;;;;;;5031624;28;20095;-71
2022/10/13 02:55:28;;;;;;;54.40;30.40;;;10.60;99.90;;;;;;5027955;28;20084;-71
2022/10/13 02:57:56;;;;;;;50.47;29.33;;;10.60;99.90;;;;;;5029334;28;20364;-71
2022/10/13 03:00:23;;;;;;;49.20;27.30;;;10.60;99.90;;;;;;5018707;28;20136;-71
2022/10/13 03:02:51;;;;;;;50.35;27.65;;;10.70;99.90;;;;;;5027431;28;20049;-71
2022/10/13 03:05:18;;;;;;;54.50;27.30;;;10.70;99.90;;;;;;5020909;28;20495;-71
2022/10/13 03:07:45;;;;;;;51.05;28.88;;;10.70;99.90;;;;;;5019535;28;20042;-71
2022/10/13 03:10:13;;;;;;;45.85;27.45;;;10.70;99.90;;;;;;5031823;28;20053;-71
2022/10/13 03:12:40;;;;;;;48.63;26.40;;;10.70;99.90;;;;;;5022425;28;20475;-70
2022/10/13 03:15:08;;;;;;;50.60;26.40;;;10.70;99.90;;;;;;5031492;28;20120;-72
2022/10/13 03:17:35;;;;;;;46.13;27.23;;;10.70;99.90;;;;;;5030081;28;20412;-72
2022/10/13 03:20:03;;;;;;;47.70;26.15;;;10.70;99.90;;;;;;5029592;28;20042;-71
2022/10/13 03:22:31;;;;;;;47.67;27.45;;;10.60;99.90;;;;;;5029425;28;20566;-73
2022/10/13 03:24:59;;;;;;;50.70;26.52;;;10.60;99.90;;;;;;5030745;28;20551;-71
2022/10/13 03:27:26;;;;;;;46.78;27.10;;;10.60;99.90;;;;;;5029912;28;20045;-72
2022/10/13 03:29:54;;;;;;;46.22;27.23;;;10.60;99.90;;;;;;5013429;28;20033;-72
2022/10/13 03:32:21;;;;;;;50.03;27.02;;;10.60;99.90;;;;;;5029058;28;20526;-71
2022/10/13 03:34:50;;;;;;;48.03;27.73;;;10.60;99.90;;;;;;5028878;28;20056;-71
2022/10/13 03:37:17;;;;;;;52.00;28.13;;;10.60;99.90;;;;;;5027722;28;20503;-71
2022/10/13 03:39:45;;;;;;;46.42;26.33;;;10.60;99.90;;;;;;5028891;28;20049;-71
2022/10/13 03:42:12;;;;;;;46.38;27.45;;;10.70;99.90;;;;;;5030185;28;20495;-71
2022/10/13 03:44:40;;;;;;;47.17;26.85;;;10.70;99.90;;;;;;5020509;28;20417;-71
2022/10/13 03:47:07;;;;;;;52.28;27.77;;;10.70;99.90;;;;;;5025474;28;20038;-71
2022/10/13 03:49:37;;;;;;;52.13;27.42;;;10.70;99.90;;;;;;5021822;28;20468;-71
2022/10/13 03:52:05;;;;;;;45.35;26.00;;;10.70;99.90;;;;;;5030092;28;20415;-71
2022/10/13 03:54:32;;;;;;;51.78;28.38;;;10.70;99.90;;;;;;5024663;28;20042;-71
2022/10/13 03:57:02;;;;;;;46.10;26.77;;;10.70;99.90;;;;;;5031317;28;20488;-71
2022/10/13 03:59:30;;;;;;;49.05;28.25;;;10.70;99.90;;;;;;5029702;28;20030;-71
2022/10/13 04:02:02;;;;;;;54.58;29.13;;;10.70;99.90;;;;;;5026971;28;20257;-70
2022/10/13 04:04:30;;;;;;;49.10;27.17;;;10.70;99.90;;;;;;5011923;28;20041;-71
2022/10/13 04:06:57;;;;;;;47.97;26.80;;;10.70;99.90;;;;;;5024760;28;20063;-71
2022/10/13 04:09:25;;;;;;;49.03;27.58;;;10.70;99.90;;;;;;5029450;28;20443;-72
2022/10/13 04:11:52;;;;;;;52.40;28.08;;;10.70;99.90;;;;;;5034016;28;20060;-72
2022/10/13 04:14:20;;;;;;;48.85;27.52;;;10.60;99.90;;;;;;5032138;28;20389;-72
2022/10/13 04:16:47;;;;;;;48.08;27.23;;;10.60;99.90;;;;;;5027217;28;20044;-72
2022/10/13 04:19:15;;;;;;;47.90;28.75;;;10.60;99.90;;;;;;5028756;28;20060;-72
2022/10/13 04:21:43;;;;;;;49.65;28.58;;;10.60;99.90;;;;;;5031101;28;20046;-72
2022/10/13 04:24:13;;;;;;;49.90;27.00;;;10.60;99.90;;;;;;5030033;28;20073;-72
2022/10/13 04:26:41;;;;;;;48.83;28.00;;;10.60;99.90;;;;;;5024426;28;20045;-72
2022/10/13 04:29:10;;;;;;;48.20;26.45;;;10.60;99.90;;;;;;5024079;28;20049;-71
2022/10/13 04:31:39;;;;;;;49.28;27.50;;;10.60;99.90;;;;;;5026695;28;20049;-72
2022/10/13 04:34:06;;;;;;;44.00;25.50;;;10.60;99.90;;;;;;5003000;28;20555;-72
2022/10/13 04:36:34;;;;;;;47.67;25.15;;;10.60;99.90;;;;;;5021331;28;20045;-71
2022/10/13 04:39:01;;;;;;;51.80;26.52;;;10.70;99.90;;;;;;5012915;28;20053;-72
2022/10/13 04:41:28;;;;;;;44.45;26.13;;;10.70;99.90;;;;;;5029694;28;20042;-72
2022/10/13 04:43:56;;;;;;;51.28;29.33;;;10.80;99.90;;;;;;5028895;28;20416;-72
2022/10/13 04:46:25;;;;;;;49.97;29.38;;;10.90;99.90;;;;;;5028999;28;20048;-72
2022/10/13 04:48:55;;;;;;;;;;;10.90;99.90;;;;;;5029571;28;20068;-72
2022/10/13 04:51:28;;;;;;;52.85;28.25;;;11.00;99.90;;;;;;5045672;28;19925;-72
2022/10/13 04:54:00;;;;;;;49.05;27.63;;;11.00;99.90;;;;;;5028988;28;20033;-72
2022/10/13 04:56:27;;;;;;;51.15;27.92;;;11.10;99.90;;;;;;5021582;28;20534;-73
2022/10/13 04:59:00;;;;;;;48.72;27.50;;;11.10;99.90;;;;;;5035621;28;20463;-71
2022/10/13 05:01:27;;;;;;;52.92;29.15;;;11.20;99.90;;;;;;5022852;28;20045;-72
2022/10/13 05:03:58;;;;;;;60.55;30.55;;;11.20;99.90;;;;;;5015637;28;20038;-73
2022/10/13 05:06:29;;;;;;;55.70;29.77;;;11.20;99.90;;;;;;5024197;28;20452;-72
2022/10/13 05:08:57;;;;;;;53.35;30.00;;;11.20;99.90;;;;;;5020397;28;20056;-72
2022/10/13 05:11:25;;;;;;;54.10;30.55;;;11.20;99.90;;;;;;5024698;28;20500;-72
2022/10/13 05:13:53;;;;;;;52.33;30.13;;;11.20;99.90;;;;;;5023116;28;20128;-72
2022/10/13 05:16:22;;;;;;;55.58;31.35;;;11.10;99.90;;;;;;5023889;28;20049;-72
2022/10/13 05:18:51;;;;;;;56.53;29.48;;;11.20;99.90;;;;;;5021513;28;20417;-72
2022/10/13 05:21:26;;;;;;;55.95;29.35;;;11.20;99.90;;;;;;5025597;28;20041;-71
2022/10/13 05:23:56;;;;;;;52.17;28.63;;;11.20;99.90;;;;;;5026426;28;20045;-69
2022/10/13 05:26:27;;;;;;;51.85;28.30;;;11.20;99.90;;;;;;5025696;28;20045;-72
2022/10/13 05:28:59;;;;;;;57.08;29.67;;;11.20;99.90;;;;;;5037949;28;20048;-72
2022/10/13 05:31:30;;;;;;;50.90;29.10;;;11.20;99.90;;;;;;5024852;28;20504;-72
2022/10/13 05:33:59;;;;;;;52.67;29.10;;;11.20;99.90;;;;;;5021083;28;20567;-72
2022/10/13 05:36:31;;;;;;;49.65;28.83;;;11.20;99.90;;;;;;5016605;28;20568;-72
2022/10/13 05:39:04;;;;;;;49.80;26.73;;;11.30;99.90;;;;;;5018030;28;20041;-73
2022/10/13 05:41:31;;;;;;;54.50;28.92;;;11.40;99.90;;;;;;5024985;28;20133;-72
2022/10/13 05:44:05;;;;;;;50.50;29.38;;;11.20;99.90;;;;;;5020044;28;20053;-69
2022/10/13 05:46:32;;;;;;;50.95;27.40;;;11.20;99.90;;;;;;5014961;28;20045;-72
2022/10/13 05:48:59;;;;;;;55.83;28.17;;;11.20;99.90;;;;;;5016289;28;20041;-72
2022/10/13 05:51:38;;;;;;;48.70;26.67;;;11.20;99.90;;;;;;5015292;28;20062;-73
2022/10/13 05:54:23;;;;;;;54.72;28.92;;;11.20;99.90;;;;;;5016179;28;20077;-73
2022/10/13 05:57:01;;;;;;;48.95;27.58;;;11.20;99.90;;;;;;5022869;28;20488;-72
2022/10/13 05:59:33;;;;;;;55.17;28.35;;;11.20;99.90;;;;;;5008165;28;20045;-72
2022/10/13 06:02:01;;;;;;;49.08;27.00;;;11.20;99.90;;;;;;5037710;28;20698;-72
2022/10/13 06:04:34;;;;;;;49.08;27.17;;;11.20;99.90;;;;;;5026855;28;20125;-72
2022/10/13 06:07:02;;;;;;;65.25;28.13;;;11.30;99.90;;;;;;5002860;28;20053;-72
2022/10/13 06:09:34;;;;;;;52.58;27.45;;;11.20;99.90;;;;;;5021096;28;20175;-73
2022/10/13 06:12:01;;;;;;;53.95;27.75;;;11.20;99.90;;;;;;5025196;28;20048;-72
2022/10/13 06:14:29;;;;;;;50.70;26.52;;;11.30;99.90;;;;;;5019238;28;20049;-72
2022/10/13 06:16:56;;;;;;;50.38;26.48;;;11.30;99.90;;;;;;5027133;28;20107;-72
2022/10/13 06:19:24;;;;;;;47.90;27.00;;;11.30;99.90;;;;;;5026291;28;20516;-73
2022/10/13 06:21:51;;;;;;;48.20;26.35;;;11.40;99.90;;;;;;5023586;28;20138;-73
2022/10/13 06:24:19;;;;;;;49.33;25.70;;;11.40;99.90;;;;;;5022228;28;20058;-72
2022/10/13 06:26:46;;;;;;;52.55;26.95;;;11.40;99.90;;;;;;5018971;28;20515;-73
2022/10/13 06:29:14;;;;;;;51.42;27.02;;;11.40;99.90;;;;;;4984781;28;20532;-73
2022/10/13 06:31:42;;;;;;;44.97;25.95;;;11.40;99.90;;;;;;5019083;28;20081;-73
2022/10/13 06:34:11;;;;;;;44.47;24.98;;;11.40;99.90;;;;;;5026684;28;20042;-73
2022/10/13 06:36:43;;;;;;;47.55;25.77;;;11.50;99.90;;;;;;5031746;28;20064;-73
2022/10/13 06:39:11;;;;;;;45.55;25.48;;;11.60;99.90;;;;;;5030777;28;20051;-74
2022/10/13 06:41:39;;;;;;;45.58;25.90;;;11.70;99.90;;;;;;5032680;28;20533;-73
2022/10/13 06:44:06;;;;;;;46.45;24.70;;;11.80;99.90;;;;;;5031402;28;20041;-73
2022/10/13 06:46:34;;;;;;;46.97;25.40;;;11.80;99.90;;;;;;4993760;28;20132;-73
2022/10/13 06:49:02;;;;;;;47.10;24.60;;;11.80;99.90;;;;;;5028230;28;20046;-72
2022/10/13 06:51:30;;;;;;;46.85;24.13;;;11.70;99.90;;;;;;5024226;28;20494;-73
2022/10/13 06:53:58;;;;;;;44.78;24.60;;;11.80;99.90;;;;;;5032784;28;20418;-73
2022/10/13 06:56:29;;;;;;;42.75;23.48;;;11.80;99.90;;;;;;5022222;28;20057;-73
2022/10/13 06:58:59;;;;;;;41.85;24.70;;;11.80;99.90;;;;;;5007229;28;20049;-73
2022/10/13 07:01:26;;;;;;;52.35;24.70;;;11.80;99.90;;;;;;5026362;28;20041;-72
2022/10/13 07:03:54;;;;;;;43.85;23.45;;;11.80;99.90;;;;;;5027713;28;20045;-72
2022/10/13 07:06:22;;;;;;;47.33;24.80;;;11.80;99.90;;;;;;5028902;28;20119;-73
2022/10/13 07:08:50;;;;;;;41.63;24.40;;;11.90;99.90;;;;;;5029273;28;20504;-72
2022/10/13 07:11:19;;;;;;;44.92;25.05;;;12.00;99.90;;;;;;5025703;28;20334;-72
2022/10/13 07:13:52;;;;;;;41.72;23.17;;;12.00;99.90;;;;;;5008408;28;20069;-72
2022/10/13 07:16:20;;;;;;;39.33;23.40;;;12.10;99.90;;;;;;5023172;28;20073;-72
2022/10/13 07:18:48;;;;;;;43.47;24.08;;;12.10;99.90;;;;;;5030791;28;20369;-71
2022/10/13 07:21:15;;;;;;;42.50;22.90;;;12.10;99.90;;;;;;5028806;28;20045;-72
2022/10/13 07:23:43;;;;;;;44.75;22.98;;;12.10;99.90;;;;;;5030070;28;20339;-72
2022/10/13 07:26:13;;;;;;;40.95;22.92;;;12.10;99.90;;;;;;5031741;28;20140;-73
2022/10/13 07:28:42;;;;;;;41.00;23.20;;;12.20;99.90;;;;;;5024073;28;20057;-73
2022/10/13 07:31:17;;;;;;;39.75;23.90;;;12.10;99.90;;;;;;5035567;28;20121;-73
2022/10/13 07:33:46;;;;;;;37.95;21.45;;;12.10;99.90;;;;;;5026973;28;20514;-72
2022/10/13 07:36:17;;;;;;;37.63;22.23;;;12.10;99.90;;;;;;5029494;28;20041;-73
2022/10/13 07:38:45;;;;;;;38.67;22.55;;;12.10;99.90;;;;;;5028167;28;20056;-72
2022/10/13 07:41:14;;;;;;;39.35;22.00;;;12.00;99.90;;;;;;5027737;28;20046;-73
2022/10/13 07:43:42;;;;;;;32.22;19.15;;;12.00;99.90;;;;;;5029608;28;20064;-73
2022/10/13 07:46:12;;;;;;;35.08;21.30;;;12.10;99.90;;;;;;5027906;28;20120;-73
2022/10/13 07:48:40;;;;;;;33.55;18.83;;;12.10;99.90;;;;;;5031837;28;20041;-73
2022/10/13 07:51:11;;;;;;;30.92;19.30;;;11.90;99.90;;;;;;5029252;28;20038;-73
2022/10/13 07:53:40;;;;;;;33.80;18.13;;;11.90;99.90;;;;;;5030855;28;20045;-73
2022/10/13 07:56:10;;;;;;;30.95;19.08;;;11.90;99.90;;;;;;5011523;28;20643;-72
2022/10/13 07:58:41;;;;;;;31.92;19.85;;;11.90;99.90;;;;;;5027409;28;20042;-73
2022/10/13 08:01:09;;;;;;;31.48;19.40;;;11.90;99.90;;;;;;5028668;28;20136;-73
2022/10/13 08:03:40;;;;;;;35.20;20.95;;;11.90;99.90;;;;;;5027460;28;20057;-72
2022/10/13 08:06:17;;;;;;;27.02;18.38;;;12.00;99.90;;;;;;5013220;28;20092;-69
2022/10/13 08:08:45;;;;;;;28.00;17.65;;;12.00;99.90;;;;;;5012335;28;20546;-72
2022/10/13 08:11:16;;;;;;;30.10;18.65;;;12.20;99.90;;;;;;5031055;28;20444;-73
2022/10/13 08:13:48;;;;;;;27.27;17.42;;;12.10;99.90;;;;;;5028760;28;20049;-72
2022/10/13 08:16:19;;;;;;;29.35;17.35;;;12.10;99.90;;;;;;5027822;28;20049;-72
2022/10/13 08:18:47;;;;;;;29.38;17.63;;;12.10;99.90;;;;;;5021038;28;20132;-72
2022/10/13 08:21:17;;;;;;;30.80;18.88;;;12.10;99.90;;;;;;5028195;28;20677;-72
2022/10/13 08:24:09;;;;;;;31.33;17.85;;;12.20;99.90;;;;;;5029012;28;20400;-72
2022/10/13 08:26:37;;;;;;;27.90;18.35;;;12.20;99.90;;;;;;5026785;28;20120;-72
2022/10/13 08:29:05;;;;;;;29.45;17.75;;;12.20;99.90;;;;;;5018189;28;20050;-72
2022/10/13 08:31:51;;;;;;;25.92;17.05;;;12.30;99.90;;;;;;5030490;28;20144;-72
2022/10/13 08:34:21;;;;;;;30.58;18.45;;;12.30;99.90;;;;;;5020395;28;20499;-72
2022/10/13 08:36:51;;;;;;;29.90;17.88;;;12.20;99.90;;;;;;5030036;28;20049;-72
2022/10/13 08:39:21;;;;;;;29.47;17.73;;;12.20;99.90;;;;;;5029751;28;20153;-72
2022/10/13 08:41:49;;;;;;;25.80;16.60;;;12.30;99.90;;;;;;5029676;28;20049;-72
2022/10/13 08:44:28;;;;;;;24.45;15.85;;;12.40;99.90;;;;;;5030444;28;20052;-73
2022/10/13 08:47:45;;;;;;;26.40;17.35;;;12.50;99.90;;;;;;5024707;28;20029;-73
2022/10/13 08:50:19;;;;;;;26.13;15.85;;;12.60;99.90;;;;;;5029152;28;20128;-73
2022/10/13 08:52:55;;;;;;;24.17;16.10;;;12.80;99.90;;;;;;4993370;28;20356;-72
2022/10/13 08:55:36;;;;;;;27.08;16.38;;;12.80;99.90;;;;;;5032829;28;20041;-72
2022/10/13 08:58:11;;;;;;;24.70;16.25;;;12.90;99.90;;;;;;5024587;28;20331;-73
2022/10/13 09:00:39;;;;;;;26.60;15.18;;;12.90;99.90;;;;;;5022295;28;20488;-72
2022/10/13 09:03:25;;;;;;;26.48;16.75;;;13.00;99.90;;;;;;5026619;28;20048;-72
2022/10/13 09:06:10;;;;;;;27.67;15.40;;;13.00;99.90;;;;;;5027809;28;20527;-72
2022/10/13 09:08:52;;;;;;;23.17;15.15;;;13.20;99.90;;;;;;5017171;28;20056;-72
2022/10/13 09:11:20;;;;;;;23.40;14.85;;;13.20;99.90;;;;;;5006989;28;20099;-73
2022/10/13 09:13:47;;;;;;;23.42;15.40;;;13.20;99.90;;;;;;5013614;28;20511;-72
2022/10/13 09:16:18;;;;;;;26.65;14.77;;;13.10;99.90;;;;;;5027060;28;20095;-73
2022/10/13 09:18:46;;;;;;;21.70;14.27;;;13.20;99.90;;;;;;5017312;28;20420;-72
2022/10/13 09:21:23;;;;;;;20.92;14.45;;;13.20;99.90;;;;;;5020424;28;20054;-73
2022/10/13 09:23:52;;;;;;;22.80;14.88;;;13.20;99.90;;;;;;5016986;28;20050;-73
2022/10/13 09:26:23;;;;;;;21.27;14.93;;;13.30;99.90;;;;;;5007344;28;20046;-73
2022/10/13 09:28:51;;;;;;;23.67;15.05;;;13.40;99.90;;;;;;5006567;28;20069;-73
2022/10/13 09:31:27;;;;;;;20.52;14.63;;;13.40;99.90;;;;;;5021673;28;20132;-73
2022/10/13 09:34:13;;;;;;;24.73;14.48;;;13.50;99.90;;;;;;5014778;28;20045;-72
2022/10/13 09:37:04;;;;;;;24.25;15.55;;;13.60;99.90;;;;;;5033936;28;20785;-72
2022/10/13 09:39:32;;;;;;;26.52;13.80;;;13.60;99.90;;;;;;5027319;28;20506;-74
2022/10/13 09:42:19;;;;;;;22.58;14.73;;;13.60;99.90;;;;;;5015022;28;20038;-73
2022/10/13 09:44:55;;;;;;;23.98;15.75;;;13.60;99.90;;;;;;5019024;28;20160;-72
2022/10/13 09:47:25;;;;;;;19.67;13.43;;;13.70;99.90;;;;;;5035901;28;20484;-72
2022/10/13 09:50:16;;;;;;;24.35;15.23;;;13.70;99.90;;;;;;5021000;28;20038;-72
2022/10/13 09:52:47;;;;;;;23.45;15.98;;;13.70;99.90;;;;;;5020910;28;20046;-73
2022/10/13 09:55:28;;;;;;;28.38;16.60;;;13.90;99.90;;;;;;5014165;28;20306;-73
2022/10/13 09:58:25;;;;;;;26.17;14.98;;;13.80;99.90;;;;;;5025360;28;20215;-73
2022/10/13 10:00:53;;;;;;;23.83;16.02;;;13.70;99.90;;;;;;5016196;28;20052;-74
2022/10/13 10:03:28;;;;;;;25.33;15.43;;;13.90;99.90;;;;;;5019552;28;20050;-73
2022/10/13 10:05:59;;;;;;;21.67;14.48;;;14.00;99.90;;;;;;5015059;28;20213;-72
2022/10/13 10:08:46;;;;;;;24.93;15.27;;;14.20;99.90;;;;;;5033593;28;20042;-74
2022/10/13 10:11:40;;;;;;;30.35;14.43;;;14.20;99.90;;;;;;5007752;28;20061;-74
2022/10/13 10:14:30;;;;;;;24.55;15.13;;;14.30;99.90;;;;;;5019422;28;20063;-74
2022/10/13 10:17:16;;;;;;;26.95;16.38;;;14.20;99.90;;;;;;5038206;28;20492;-74
2022/10/13 10:19:58;;;;;;;28.67;17.35;;;14.10;99.90;;;;;;5015139;28;20424;-74
2022/10/13 10:22:53;;;;;;;28.83;16.92;;;14.00;99.90;;;;;;5014709;28;20128;-74
2022/10/13 10:25:33;;;;;;;33.28;17.00;;;13.70;99.90;;;;;;5032386;28;20104;-74
2022/10/13 10:28:37;;;;;;;26.27;15.88;;;13.60;99.90;;;;;;5010186;28;20042;-74
2022/10/13 10:31:35;;;;;;;29.30;16.35;;;13.80;99.90;;;;;;5021489;28;20085;-72
2022/10/13 10:34:24;;;;;;;28.70;16.50;;;14.00;99.90;;;;;;5031099;28;20183;-73
2022/10/13 10:37:25;;;;;;;22.55;15.05;;;14.30;99.90;;;;;;5025042;28;20045;-74
2022/10/13 10:40:15;;;;;;;24.55;15.45;;;14.60;99.90;;;;;;5021803;28;20046;-73
2022/10/13 10:43:05;;;;;;;26.52;16.05;;;14.90;99.90;;;;;;5032534;28;20355;-73
2022/10/13 10:45:37;;;;;;;26.40;15.32;;;15.00;99.90;;;;;;5029629;28;20108;-74
2022/10/13 10:48:16;;;;;;;29.70;16.30;;;15.00;99.90;;;;;;5021093;28;20382;-73
2022/10/13 10:50:44;;;;;;;24.08;14.70;;;14.90;99.90;;;;;;5030063;28;20072;-73
2022/10/13 10:53:38;;;;;;;25.27;15.23;;;15.10;99.90;;;;;;5034952;28;20050;-73
2022/10/13 10:56:21;;;;;;;23.48;15.00;;;15.20;99.90;;;;;;5029423;28;20330;-74
2022/10/13 10:58:58;;;;;;;25.70;16.40;;;15.40;99.90;;;;;;5019859;28;20132;-74
2022/10/13 11:01:46;;;;;;;25.05;15.82;;;15.50;99.90;;;;;;5031799;28;20042;-74
2022/10/13 11:04:41;;;;;;;28.77;15.55;;;15.60;99.90;;;;;;5015655;28;20061;-73
2022/10/13 11:07:24;;;;;;;26.92;15.77;;;15.80;99.90;;;;;;5022926;28;20041;-74
2022/10/13 11:09:51;;;;;;;29.45;16.30;;;16.30;99.90;;;;;;5019470;28;20460;-74
2022/10/13 11:12:21;;;;;;;28.33;15.40;;;16.30;99.90;;;;;;5029554;28;20042;-75
2022/10/13 11:15:12;;;;;;;28.55;16.60;;;16.60;99.90;;;;;;5029443;28;20041;-74
2022/10/13 11:17:40;;;;;;;22.15;15.23;;;17.10;99.90;;;;;;5028064;28;20037;-73
2022/10/13 11:20:47;;;;;;;29.15;16.00;;;17.50;99.90;;;;;;5029954;28;20072;-75
2022/10/13 11:23:17;;;;;;;26.60;14.77;;;17.70;99.90;;;;;;5043256;28;20065;-74
2022/10/13 11:25:47;;;;;;;23.15;15.13;;;17.70;99.90;;;;;;5031036;28;20448;-75
2022/10/13 11:28:21;;;;;;;26.15;16.15;;;17.60;99.90;;;;;;5029544;28;20449;-74
2022/10/13 11:31:03;;;;;;;25.33;16.20;;;17.40;99.90;;;;;;5025032;28;20033;-74
2022/10/13 11:33:49;;;;;;;26.73;15.32;;;17.00;99.90;;;;;;5025742;28;20046;-74
2022/10/13 11:36:30;;;;;;;27.00;16.85;;;16.80;99.90;;;;;;5014446;28;20511;-74
2022/10/13 11:39:26;;;;;;;28.48;16.15;;;16.50;99.90;;;;;;5027441;28;20472;-74
2022/10/13 11:42:19;;;;;;;27.48;16.30;;;16.30;99.90;;;;;;5026095;28;20048;-74
2022/10/13 11:44:54;;;;;;;22.90;15.15;;;16.40;99.90;;;;;;5022045;28;20116;-74
2022/10/13 11:47:52;;;;;;;24.27;14.85;;;16.30;99.90;;;;;;5008346;28;20046;-74
2022/10/13 11:50:47;;;;;;;28.67;15.70;;;16.30;99.90;;;;;;5012655;28;20132;-74
2022/10/13 11:53:26;;;;;;;27.50;14.98;;;16.40;99.90;;;;;;5023027;28;20411;-74
2022/10/13 11:55:56;;;;;;;29.75;15.40;;;16.60;99.90;;;;;;5000802;28;20046;-74
2022/10/13 11:58:26;;;;;;;30.10;15.23;;;16.60;99.90;;;;;;5024192;28;20042;-74
2022/10/13 12:01:02;;;;;;;24.70;13.73;;;16.50;99.90;;;;;;5026110;28;20258;-74
2022/10/13 12:03:31;;;;;;;22.38;15.07;;;16.60;99.90;;;;;;5012791;28;20046;-74
2022/10/13 12:06:05;;;;;;;25.83;14.15;;;16.60;99.90;;;;;;5024923;28;20049;-73
2022/10/13 12:08:34;;;;;;;31.13;14.80;;;16.40;99.90;;;;;;5010077;28;20044;-75
2022/10/13 12:11:06;;;;;;;29.42;15.30;;;16.20;99.90;;;;;;5014293;28;20050;-75
2022/10/13 12:13:36;;;;;;;22.85;14.82;;;16.10;99.90;;;;;;5018627;28;20048;-75
2022/10/13 12:16:05;;;;;;;23.25;15.15;;;16.00;99.90;;;;;;5025004;28;20049;-75
2022/10/13 12:18:34;;;;;;;30.95;16.05;;;15.80;99.90;;;;;;5019647;28;20499;-75
2022/10/13 12:21:20;;;;;;;22.60;13.98;;;15.80;99.90;;;;;;5029768;28;20057;-75
2022/10/13 12:24:04;;;;;;;32.00;15.55;;;15.90;99.90;;;;;;5022595;28;20045;-75
2022/10/13 12:26:31;;;;;;;25.60;14.90;;;16.00;99.90;;;;;;5029785;28;20044;-74
2022/10/13 12:29:09;;;;;;;25.45;15.60;;;16.10;99.90;;;;;;5008459;28;20089;-75
2022/10/13 12:31:46;;;;;;;24.98;15.52;;;16.20;99.90;;;;;;5025164;28;20075;-75
2022/10/13 12:34:32;;;;;;;22.05;15.07;;;16.10;99.90;;;;;;5012239;28;20033;-75
2022/10/13 12:37:03;;;;;;;24.08;14.00;;;16.20;99.90;;;;;;5045245;28;20441;-75
2022/10/13 12:39:33;;;;;;;29.20;15.88;;;16.10;99.90;;;;;;5029789;28;20056;-75
2022/10/13 12:42:05;;;;;;;29.48;15.90;;;16.10;99.90;;;;;;5028733;28;20643;-75
2022/10/13 12:44:37;;;;;;;26.10;15.18;;;16.20;99.90;;;;;;5027088;28;20393;-75
2022/10/13 12:47:04;;;;;;;27.83;16.20;;;16.30;99.90;;;;;;5030875;28;20535;-75
2022/10/13 12:49:34;;;;;;;27.50;15.75;;;16.30;99.90;;;;;;5025379;28;20432;-74
2022/10/13 12:52:31;;;;;;;26.75;14.77;;;16.30;99.90;;;;;;5032981;28;20101;-73
2022/10/13 12:55:00;;;;;;;26.90;15.80;;;16.30;99.90;;;;;;5036945;28;20041;-76
2022/10/13 12:57:37;;;;;;;25.42;15.40;;;16.30;99.90;;;;;;5037353;28;20041;-70
2022/10/13 13:00:18;;;;;;;27.23;14.80;;;16.50;99.90;;;;;;5033805;28;20091;-74